Time;durP1;ratioP1;P1;durP2;ratioP2;P2;SDS_P1;SDS_P2;PMS_P1;PMS_P2;Temp;Humidity;BMP_temperature;BMP_pressure;BME280_temperature;BME280_humidity;BME280_pressure;Samples;Min_cycle;Max_cycle;Signal;HPM_P1;HPM_P2
2022/06/09 00:01:04;;;;;;;6.73;2.70;;;;;;;;;;4985367;28;20515;-58
2022/06/09 00:03:32;;;;;;;6.47;2.80;;;;;;;;;;4989307;28;20459;-58
2022/06/09 00:05:58;;;;;;;5.40;2.70;;;;;;;;;;4989122;28;20419;-58
2022/06/09 00:08:24;;;;;;;6.95;2.85;;;;;;;;;;4980986;28;20413;-58
2022/06/09 00:10:52;;;;;;;7.20;2.58;;;;;;;;;;4984048;28;20426;-57
2022/06/09 00:13:18;;;;;;;6.53;3.13;;;;;;;;;;4981514;28;20426;-58
2022/06/09 00:15:44;;;;;;;8.07;2.83;;;;;;;;;;4982434;28;20416;-58
2022/06/09 00:18:10;;;;;;;7.05;2.70;;;;;;;;;;4986260;28;20469;-58
2022/06/09 00:20:36;;;;;;;6.55;2.80;;;;;;;;;;4981324;28;20911;-57
2022/06/09 00:23:02;;;;;;;8.00;3.03;;;;;;;;;;4987271;28;21138;-58
2022/06/09 00:25:28;;;;;;;6.25;2.70;;;;;;;;;;4985722;28;20986;-57
2022/06/09 00:27:54;;;;;;;6.78;2.38;;;;;;;;;;4983976;28;20440;-58
2022/06/09 00:30:20;;;;;;;5.80;2.60;;;;;;;;;;4985089;28;20503;-58
2022/06/09 00:32:46;;;;;;;7.13;2.90;;;;;;;;;;4983761;28;20412;-57
2022/06/09 00:35:12;;;;;;;7.82;2.80;;;;;;;;;;4985387;28;20415;-57
2022/06/09 00:37:38;;;;;;;4.88;2.70;;;;;;;;;;4984914;28;20404;-58
2022/06/09 00:40:05;;;;;;;9.33;2.80;;;;;;;;;;4989710;28;20416;-58
2022/06/09 00:42:32;;;;;;;8.48;3.20;;;;;;;;;;4988024;28;20768;-58
2022/06/09 00:45:17;;;;;;;7.40;2.80;;;;;;;;;;4989658;28;20393;-58
2022/06/09 00:47:43;;;;;;;6.00;2.90;;;;;;;;;;4982067;28;20440;-57
2022/06/09 00:50:16;;;;;;;7.07;2.83;;;;;;;;;;4981629;28;20488;-58
2022/06/09 00:52:43;;;;;;;6.45;3.03;;;;;;;;;;4992453;28;20404;-57
2022/06/09 00:55:13;;;;;;;10.32;3.30;;;;;;;;;;4988270;28;20420;-58
2022/06/09 00:57:41;;;;;;;6.13;2.75;;;;;;;;;;4985893;28;20935;-58
2022/06/09 01:00:09;;;;;;;6.93;2.88;;;;;;;;;;4987512;28;20414;-57
2022/06/09 01:02:36;;;;;;;8.30;2.90;;;;;;;;;;4987974;28;20420;-58
2022/06/09 01:05:03;;;;;;;7.43;3.08;;;;;;;;;;4983724;28;21135;-58
2022/06/09 01:07:32;;;;;;;7.73;2.80;;;;;;;;;;4985372;28;20455;-58
2022/06/09 01:09:58;;;;;;;6.68;3.00;;;;;;;;;;4986954;28;20444;-58
2022/06/09 01:12:29;;;;;;;7.93;3.20;;;;;;;;;;4987846;28;20509;-58
2022/06/09 01:14:57;;;;;;;5.65;2.72;;;;;;;;;;4992251;28;20502;-58
2022/06/09 01:17:29;;;;;;;7.13;2.88;;;;;;;;;;4988278;28;20400;-57
2022/06/09 01:20:13;;;;;;;8.32;2.80;;;;;;;;;;4988548;28;20772;-58
2022/06/09 01:22:42;;;;;;;8.40;2.60;;;;;;;;;;4987468;28;20417;-57
2022/06/09 01:25:09;;;;;;;8.13;2.88;;;;;;;;;;4988461;28;20941;-58
2022/06/09 01:27:40;;;;;;;7.55;2.90;;;;;;;;;;4989161;28;20440;-58
2022/06/09 01:30:08;;;;;;;10.18;3.00;;;;;;;;;;4988730;28;20408;-58
2022/06/09 01:32:36;;;;;;;8.17;2.90;;;;;;;;;;4990241;28;20413;-57
2022/06/09 01:35:07;;;;;;;9.68;3.17;;;;;;;;;;4983194;28;20483;-58
2022/06/09 01:37:41;;;;;;;8.23;2.65;;;;;;;;;;4987952;28;20410;-58
2022/06/09 01:40:07;;;;;;;7.05;3.05;;;;;;;;;;4992221;28;20446;-57
2022/06/09 01:42:36;;;;;;;6.13;3.10;;;;;;;;;;4991217;28;20951;-58
2022/06/09 01:45:13;;;;;;;9.18;3.40;;;;;;;;;;4990783;28;20417;-58
2022/06/09 01:47:41;;;;;;;8.10;2.90;;;;;;;;;;4990901;28;20412;-58
2022/06/09 01:50:11;;;;;;;7.43;3.00;;;;;;;;;;4990537;28;20408;-58
2022/06/09 01:52:37;;;;;;;6.97;2.97;;;;;;;;;;4987587;28;20428;-58
2022/06/09 01:55:04;;;;;;;7.55;2.70;;;;;;;;;;4989754;28;20410;-58
2022/06/09 01:57:32;;;;;;;8.05;2.80;;;;;;;;;;4993105;28;20573;-58
2022/06/09 02:00:00;;;;;;;6.75;2.92;;;;;;;;;;4987538;28;20811;-58
2022/06/09 02:02:27;;;;;;;7.23;3.27;;;;;;;;;;4988032;28;20417;-58
2022/06/09 02:05:05;;;;;;;9.90;3.50;;;;;;;;;;4989744;28;20410;-58
2022/06/09 02:07:32;;;;;;;7.68;3.40;;;;;;;;;;4994359;28;20420;-58
2022/06/09 02:09:58;;;;;;;8.35;3.10;;;;;;;;;;4986502;28;20410;-58
2022/06/09 02:12:24;;;;;;;8.57;3.00;;;;;;;;;;4990978;28;20934;-58
2022/06/09 02:14:51;;;;;;;9.00;3.30;;;;;;;;;;4991527;28;20962;-58
2022/06/09 02:17:17;;;;;;;7.13;3.27;;;;;;;;;;4993546;28;20523;-58
2022/06/09 02:19:43;;;;;;;7.90;3.03;;;;;;;;;;4987978;28;20903;-57
2022/06/09 02:22:09;;;;;;;9.75;3.45;;;;;;;;;;4994384;28;20410;-58
2022/06/09 02:24:35;;;;;;;7.60;3.17;;;;;;;;;;4991262;28;20412;-58
2022/06/09 02:27:01;;;;;;;10.23;3.10;;;;;;;;;;4991508;28;20764;-56
2022/06/09 02:29:27;;;;;;;6.95;3.38;;;;;;;;;;4989736;28;20418;-58
2022/06/09 02:31:53;;;;;;;9.10;3.47;;;;;;;;;;4989641;28;20770;-57
2022/06/09 02:34:19;;;;;;;8.47;3.40;;;;;;;;;;4988865;28;20500;-57
2022/06/09 02:36:45;;;;;;;10.32;3.30;;;;;;;;;;4984557;28;21579;-57
2022/06/09 02:39:11;;;;;;;9.90;3.22;;;;;;;;;;4990786;28;20415;-57
2022/06/09 02:41:37;;;;;;;7.47;3.30;;;;;;;;;;4990325;28;20408;-58
2022/06/09 02:44:03;;;;;;;9.07;3.53;;;;;;;;;;4984886;28;20540;-58
2022/06/09 02:46:30;;;;;;;7.90;3.38;;;;;;;;;;4985351;28;20418;-58
2022/06/09 02:48:56;;;;;;;8.93;3.63;;;;;;;;;;4987395;28;20410;-57
2022/06/09 02:51:34;;;;;;;8.75;3.50;;;;;;;;;;4991418;28;20412;-57
2022/06/09 02:54:02;;;;;;;11.55;3.80;;;;;;;;;;4989987;28;20408;-58
2022/06/09 02:56:28;;;;;;;8.10;3.40;;;;;;;;;;4992325;28;20439;-58
2022/06/09 02:58:56;;;;;;;11.77;4.40;;;;;;;;;;4985859;28;20412;-58
2022/06/09 03:01:22;;;;;;;10.30;3.70;;;;;;;;;;4988011;28;21200;-58
2022/06/09 03:03:48;;;;;;;9.35;3.60;;;;;;;;;;4984969;28;20442;-58
2022/06/09 03:06:14;;;;;;;10.25;3.70;;;;;;;;;;4989420;28;20417;-58
2022/06/09 03:08:40;;;;;;;9.27;3.78;;;;;;;;;;4991491;28;20409;-58
2022/06/09 03:11:06;;;;;;;12.30;3.90;;;;;;;;;;4987521;28;20405;-58
2022/06/09 03:13:32;;;;;;;10.70;3.90;;;;;;;;;;4986733;28;20837;-57
2022/06/09 03:15:58;;;;;;;8.57;3.65;;;;;;;;;;4984803;28;20398;-58
2022/06/09 03:18:24;;;;;;;10.07;3.72;;;;;;;;;;4990949;28;20416;-58
2022/06/09 03:20:50;;;;;;;9.27;3.70;;;;;;;;;;4978657;28;21052;-58
2022/06/09 03:23:16;;;;;;;11.07;4.03;;;;;;;;;;4987031;28;20874;-58
2022/06/09 03:25:43;;;;;;;11.13;3.92;;;;;;;;;;4991258;28;20437;-58
2022/06/09 03:28:09;;;;;;;12.68;4.68;;;;;;;;;;4992202;28;20798;-58
2022/06/09 03:30:35;;;;;;;13.20;4.30;;;;;;;;;;4984774;28;20408;-57
2022/06/09 03:33:01;;;;;;;12.02;3.92;;;;;;;;;;4987414;28;20420;-58
2022/06/09 03:35:27;;;;;;;11.77;3.88;;;;;;;;;;4984301;28;20497;-57
2022/06/09 03:37:53;;;;;;;13.70;4.32;;;;;;;;;;4997103;28;20457;-58
2022/06/09 03:40:19;;;;;;;13.13;4.00;;;;;;;;;;4983604;28;21157;-57
2022/06/09 03:42:45;;;;;;;10.70;3.80;;;;;;;;;;4986923;28;21111;-58
2022/06/09 03:45:11;;;;;;;11.93;4.13;;;;;;;;;;4986376;28;20409;-57
2022/06/09 03:47:37;;;;;;;9.27;4.10;;;;;;;;;;4990283;28;20414;-57
2022/06/09 03:50:04;;;;;;;11.50;4.30;;;;;;;;;;4987818;28;20488;-58
2022/06/09 03:52:30;;;;;;;11.13;4.05;;;;;;;;;;4988715;28;20572;-58
2022/06/09 03:54:56;;;;;;;11.52;4.40;;;;;;;;;;4989064;28;20426;-58
2022/06/09 03:57:21;;;;;;;12.18;4.15;;;;;;;;;;4991274;28;20437;-57
2022/06/09 03:59:47;;;;;;;11.40;4.32;;;;;;;;;;4988868;28;20418;-57
2022/06/09 04:02:13;;;;;;;9.35;3.85;;;;;;;;;;4979015;28;20560;-57
2022/06/09 04:04:39;;;;;;;10.95;4.13;;;;;;;;;;4987335;28;20432;-58
2022/06/09 04:07:06;;;;;;;10.93;4.43;;;;;;;;;;4984358;28;20426;-58
2022/06/09 04:09:32;;;;;;;12.93;4.50;;;;;;;;;;4988169;28;20409;-57
2022/06/09 04:11:58;;;;;;;12.93;4.30;;;;;;;;;;4982060;28;20499;-57
2022/06/09 04:14:23;;;;;;;11.50;4.32;;;;;;;;;;4996659;28;20413;-58
2022/06/09 04:16:54;;;;;;;11.52;4.70;;;;;;;;;;4983879;28;20422;-58
2022/06/09 04:19:20;;;;;;;13.30;4.45;;;;;;;;;;4990026;28;20420;-57
2022/06/09 04:21:46;;;;;;;12.40;4.13;;;;;;;;;;4981315;28;20478;-59
2022/06/09 04:24:12;;;;;;;12.75;4.38;;;;;;;;;;4980709;28;20413;-56
2022/06/09 04:26:38;;;;;;;12.60;4.43;;;;;;;;;;4983200;28;20455;-58
2022/06/09 04:29:05;;;;;;;11.50;4.50;;;;;;;;;;4987059;28;20906;-57
2022/06/09 04:31:31;;;;;;;13.30;4.50;;;;;;;;;;4980018;28;20467;-57
2022/06/09 04:33:57;;;;;;;11.27;4.70;;;;;;;;;;4983789;28;20410;-57
2022/06/09 04:36:23;;;;;;;13.70;4.85;;;;;;;;;;4977191;28;20418;-57
2022/06/09 04:38:49;;;;;;;11.18;4.53;;;;;;;;;;4983395;28;20411;-58
2022/06/09 04:41:15;;;;;;;11.25;4.68;;;;;;;;;;4977149;28;20423;-57
2022/06/09 04:43:42;;;;;;;10.85;4.50;;;;;;;;;;4986246;28;20441;-57
2022/06/09 04:46:08;;;;;;;12.32;4.60;;;;;;;;;;4979728;28;20787;-58
2022/06/09 04:48:34;;;;;;;11.02;4.80;;;;;;;;;;4981366;28;21111;-57
2022/06/09 04:51:00;;;;;;;12.63;4.60;;;;;;;;;;4983698;28;20428;-57
2022/06/09 04:53:26;;;;;;;13.95;5.00;;;;;;;;;;4973653;28;20420;-58
2022/06/09 04:55:52;;;;;;;10.88;4.60;;;;;;;;;;4971853;28;20502;-57
2022/06/09 04:58:18;;;;;;;13.83;4.93;;;;;;;;;;4973364;28;20426;-57
2022/06/09 05:00:44;;;;;;;12.97;4.87;;;;;;;;;;4980163;28;20850;-57
2022/06/09 05:03:13;;;;;;;14.60;4.67;;;;;;;;;;4974666;28;20416;-57
2022/06/09 05:05:40;;;;;;;14.23;4.57;;;;;;;;;;4969766;28;20961;-57
2022/06/09 05:08:06;;;;;;;13.23;4.80;;;;;;;;;;4970972;28;20406;-57
2022/06/09 05:10:32;;;;;;;13.60;5.47;;;;;;;;;;4970600;28;20431;-56
2022/06/09 05:13:00;;;;;;;10.70;4.63;;;;;;;;;;4980513;28;20928;-57
2022/06/09 05:15:26;;;;;;;11.02;4.68;;;;;;;;;;4982124;28;20413;-57
2022/06/09 05:17:52;;;;;;;12.37;5.07;;;;;;;;;;4992156;28;21002;-54
2022/06/09 05:20:20;;;;;;;15.15;5.68;;;;;;;;;;4996396;28;20518;-54
2022/06/09 05:22:46;;;;;;;12.95;5.10;;;;;;;;;;4996969;28;20802;-56
2022/06/09 05:25:12;;;;;;;17.33;5.45;;;;;;;;;;4992997;28;20412;-55
2022/06/09 05:27:38;;;;;;;14.65;5.90;;;;;;;;;;5003836;28;20415;-55
2022/06/09 05:30:04;;;;;;;16.13;5.33;;;;;;;;;;4996734;28;20788;-55
2022/06/09 05:32:30;;;;;;;18.52;6.47;;;;;;;;;;4998662;28;20592;-55
2022/06/09 05:34:56;;;;;;;15.93;5.80;;;;;;;;;;4999609;28;20448;-56
2022/06/09 05:37:22;;;;;;;15.05;5.53;;;;;;;;;;5002665;28;20414;-57
2022/06/09 05:45:17;;;;;;;13.70;5.07;;;;;;;;;;4991566;28;20197;-56
2022/06/09 05:47:43;;;;;;;13.00;4.67;;;;;;;;;;4996801;28;20693;-57
2022/06/09 05:50:09;;;;;;;11.67;5.37;;;;;;;;;;4993907;28;20190;-56
2022/06/09 05:52:35;;;;;;;13.30;5.47;;;;;;;;;;4991949;28;20201;-58
2022/06/09 05:55:01;;;;;;;9.83;4.87;;;;;;;;;;4993839;28;20186;-57
2022/06/09 05:57:27;;;;;;;9.40;4.97;;;;;;;;;;4995287;28;20194;-58
2022/06/09 05:59:53;;;;;;;9.93;5.13;;;;;;;;;;4995668;28;20214;-56
2022/06/09 06:02:22;;;;;;;15.53;5.73;;;;;;;;;;4998468;28;20185;-57
2022/06/09 06:04:48;;;;;;;13.60;5.27;;;;;;;;;;4995523;28;20197;-58
2022/06/09 06:07:14;;;;;;;13.27;4.97;;;;;;;;;;4996316;28;20193;-57
2022/06/09 06:09:40;;;;;;;12.97;5.30;;;;;;;;;;4993677;28;20273;-58
2022/06/09 06:12:06;;;;;;;10.43;5.67;;;;;;;;;;4990142;28;20767;-57
2022/06/09 06:14:32;;;;;;;13.00;5.63;;;;;;;;;;4989082;28;20213;-58
2022/06/09 06:16:58;;;;;;;13.70;5.50;;;;;;;;;;4994680;28;20285;-57
2022/06/09 06:19:24;;;;;;;12.27;5.07;;;;;;;;;;4992279;28;20683;-58
2022/06/09 06:21:50;;;;;;;13.10;5.83;;;;;;;;;;4997065;28;20170;-58
2022/06/09 06:24:17;;;;;;;10.97;5.30;;;;;;;;;;4994422;28;20182;-58
2022/06/09 06:26:43;;;;;;;9.97;4.90;;;;;;;;;;4993592;28;20182;-58
2022/06/09 06:29:09;;;;;;;9.73;4.90;;;;;;;;;;4989143;28;20279;-57
2022/06/09 06:31:35;;;;;;;15.23;5.47;;;;;;;;;;4991671;28;20710;-58
2022/06/09 06:34:01;;;;;;;9.60;4.60;;;;;;;;;;4993909;28;20193;-58
2022/06/09 06:36:29;;;;;;;8.40;5.10;;;;;;;;;;4998807;28;20194;-57
2022/06/09 06:38:55;;;;;;;10.60;5.00;;;;;;;;;;4995760;28;20194;-58
2022/06/09 06:41:21;;;;;;;10.77;5.40;;;;;;;;;;4993045;28;20202;-57
2022/06/09 06:43:48;;;;;;;10.63;5.00;;;;;;;;;;4985632;28;20197;-58
2022/06/09 06:46:14;;;;;;;12.03;5.00;;;;;;;;;;4990119;28;20664;-58
2022/06/09 06:48:40;;;;;;;11.33;4.93;;;;;;;;;;4988721;28;20192;-58
2022/06/09 06:51:06;;;;;;;7.40;4.30;;;;;;;;;;4998014;28;20178;-58
2022/06/09 06:53:32;;;;;;;10.43;4.70;;;;;;;;;;4984583;28;20196;-58
2022/06/09 06:55:58;;;;;;;8.50;4.90;;;;;;;;;;4993668;28;20186;-57
2022/06/09 06:58:24;;;;;;;10.37;5.03;;;;;;;;;;4991112;28;20562;-57
2022/06/09 07:00:51;;;;;;;9.37;4.47;;;;;;;;;;4992399;28;20214;-58
2022/06/09 07:03:16;;;;;;;9.57;5.03;;;;;;;;;;4996302;28;20201;-58
2022/06/09 07:05:42;;;;;;;8.93;4.77;;;;;;;;;;4997835;28;20727;-58
2022/06/09 07:08:09;;;;;;;8.73;5.10;;;;;;;;;;4993481;28;20570;-58
2022/06/09 07:10:35;;;;;;;8.07;4.07;;;;;;;;;;4990127;28;20807;-57
2022/06/09 07:13:01;;;;;;;9.50;4.60;;;;;;;;;;4989185;28;20693;-58
2022/06/09 07:15:27;;;;;;;8.13;4.27;;;;;;;;;;4990693;28;20273;-58
2022/06/09 07:17:53;;;;;;;9.30;4.63;;;;;;;;;;4992644;28;20252;-58
2022/06/09 07:20:19;;;;;;;11.33;5.30;;;;;;;;;;4991877;28;20809;-57
2022/06/09 07:22:45;;;;;;;10.27;4.83;;;;;;;;;;4996651;28;20209;-58
2022/06/09 07:25:12;;;;;;;8.97;4.33;;;;;;;;;;4991319;28;20186;-58
2022/06/09 07:27:38;;;;;;;9.67;5.13;;;;;;;;;;4992341;28;20209;-58
2022/06/09 07:30:04;;;;;;;9.80;5.33;;;;;;;;;;4983503;28;20190;-58
2022/06/09 07:32:30;;;;;;;10.73;5.10;;;;;;;;;;4985189;28;20198;-58
2022/06/09 07:34:56;;;;;;;11.40;4.90;;;;;;;;;;4992365;28;20185;-58
2022/06/09 07:37:22;;;;;;;7.67;4.83;;;;;;;;;;4994697;28;20197;-60
2022/06/09 07:39:48;;;;;;;8.33;4.70;;;;;;;;;;4994001;28;20221;-58
2022/06/09 07:42:14;;;;;;;7.80;5.10;;;;;;;;;;4993287;28;20192;-58
2022/06/09 07:44:40;;;;;;;8.17;5.70;;;;;;;;;;4986881;28;20237;-58
2022/06/09 07:47:06;;;;;;;10.20;5.23;;;;;;;;;;4996689;28;20189;-58
2022/06/09 07:49:33;;;;;;;10.70;4.73;;;;;;;;;;4993157;28;20305;-58
2022/06/09 07:51:59;;;;;;;8.37;5.00;;;;;;;;;;4989942;28;20225;-57
2022/06/09 07:54:25;;;;;;;9.17;4.90;;;;;;;;;;4985855;28;20269;-58
2022/06/09 07:56:51;;;;;;;11.20;5.53;;;;;;;;;;4987831;28;20190;-58
2022/06/09 07:59:17;;;;;;;10.50;5.17;;;;;;;;;;4981625;28;20213;-57
2022/06/09 08:01:46;;;;;;;7.17;4.53;;;;;;;;;;4977689;28;20214;-58
2022/06/09 08:04:12;;;;;;;7.90;5.03;;;;;;;;;;4967566;28;20224;-58
2022/06/09 08:06:38;;;;;;;10.83;4.93;;;;;;;;;;4982051;28;20237;-58
2022/06/09 08:09:04;;;;;;;11.83;6.37;;;;;;;;;;4985911;28;20218;-57
2022/06/09 08:11:32;;;;;;;9.67;5.13;;;;;;;;;;4987495;28;20186;-57
2022/06/09 08:13:58;;;;;;;9.93;4.77;;;;;;;;;;4984681;28;20549;-58
2022/06/09 08:16:25;;;;;;;8.33;4.73;;;;;;;;;;4987424;28;20304;-58
2022/06/09 08:18:50;;;;;;;9.93;4.60;;;;;;;;;;4985502;28;20773;-57
2022/06/09 08:21:16;;;;;;;11.77;5.30;;;;;;;;;;4986063;28;20216;-58
2022/06/09 08:23:42;;;;;;;11.83;5.00;;;;;;;;;;4986345;28;20252;-58
2022/06/09 08:26:08;;;;;;;12.37;5.40;;;;;;;;;;4985798;28;20546;-58
2022/06/09 08:28:34;;;;;;;13.40;4.87;;;;;;;;;;4981390;28;20682;-58
2022/06/09 08:31:00;;;;;;;10.00;5.37;;;;;;;;;;4983764;28;20216;-57
2022/06/09 08:33:27;;;;;;;7.83;4.70;;;;;;;;;;4978751;28;20255;-57
2022/06/09 08:35:53;;;;;;;10.00;4.90;;;;;;;;;;4983454;28;20322;-58
2022/06/09 08:38:19;;;;;;;11.50;5.10;;;;;;;;;;4984476;28;20201;-58
2022/06/09 08:40:45;;;;;;;9.27;4.90;;;;;;;;;;4985385;28;20213;-58
2022/06/09 08:43:31;;;;;;;10.63;4.83;;;;;;;;;;4982581;28;21166;-58
2022/06/09 08:45:57;;;;;;;7.70;4.50;;;;;;;;;;4984187;28;20201;-58
2022/06/09 08:48:24;;;;;;;11.30;4.33;;;;;;;;;;4983925;28;20284;-58
2022/06/09 08:50:58;;;;;;;7.77;3.77;;;;;;;;;;4980204;28;20197;-58
2022/06/09 08:53:24;;;;;;;10.98;3.90;;;;;;;;;;4977988;28;20197;-58
2022/06/09 08:55:54;;;;;;;8.95;4.10;;;;;;;;;;4983874;28;20190;-58
2022/06/09 08:58:27;;;;;;;8.40;4.30;;;;;;;;;;4983734;28;20202;-57
2022/06/09 09:01:06;;;;;;;8.23;4.32;;;;;;;;;;4985396;28;20780;-58
2022/06/09 09:03:34;;;;;;;7.57;4.47;;;;;;;;;;4980915;28;20572;-58
2022/06/09 09:06:09;;;;;;;9.50;4.27;;;;;;;;;;4983477;28;20767;-58
2022/06/09 09:08:38;;;;;;;8.93;3.97;;;;;;;;;;4983608;28;20638;-57
2022/06/09 09:11:13;;;;;;;6.15;3.83;;;;;;;;;;4985895;28;20193;-58
2022/06/09 09:13:46;;;;;;;7.82;4.28;;;;;;;;;;4979720;28;20354;-57
2022/06/09 09:16:30;;;;;;;7.35;3.75;;;;;;;;;;4984768;28;20244;-57
2022/06/09 09:18:59;;;;;;;11.18;4.65;;;;;;;;;;4997987;28;20193;-57
2022/06/09 09:21:28;;;;;;;10.05;4.63;;;;;;;;;;4992814;28;20197;-57
2022/06/09 09:23:54;;;;;;;8.23;4.40;;;;;;;;;;4993128;28;20227;-57
2022/06/09 09:26:26;;;;;;;9.80;4.70;;;;;;;;;;4986715;28;20189;-56
2022/06/09 09:29:01;;;;;;;8.30;4.82;;;;;;;;;;4978317;28;20902;-57
2022/06/09 09:31:39;;;;;;;8.70;4.30;;;;;;;;;;4985032;28;20197;-57
2022/06/09 09:34:05;;;;;;;10.13;5.00;;;;;;;;;;4974883;28;20218;-57
2022/06/09 09:36:37;;;;;;;10.13;4.70;;;;;;;;;;4987989;28;20203;-57
2022/06/09 09:39:09;;;;;;;7.07;3.60;;;;;;;;;;4985358;28;20194;-58
2022/06/09 09:41:36;;;;;;;7.80;3.83;;;;;;;;;;4982864;28;20189;-58
2022/06/09 09:44:14;;;;;;;12.30;4.05;;;;;;;;;;4982046;28;20555;-57
2022/06/09 09:46:40;;;;;;;22.80;4.88;;;;;;;;;;4989984;28;20374;-57
2022/06/09 09:49:15;;;;;;;8.82;4.20;;;;;;;;;;4984448;28;21238;-60
2022/06/09 09:51:41;;;;;;;8.65;3.50;;;;;;;;;;4987312;28;20208;-57
2022/06/09 09:54:17;;;;;;;8.63;3.67;;;;;;;;;;4987097;28;20190;-60
2022/06/09 09:56:43;;;;;;;8.38;4.03;;;;;;;;;;4987771;28;20273;-61
2022/06/09 09:59:17;;;;;;;8.45;3.33;;;;;;;;;;4978764;28;20205;-60
2022/06/09 10:10:11;;;;;;;5.60;3.15;;;;;;;;;;4992051;28;20241;-57
2022/06/09 10:12:37;;;;;;;5.53;3.22;;;;;;;;;;4993971;28;20714;-57
2022/06/09 10:15:04;;;;;;;6.53;2.70;;;;;;;;;;4991529;28;20248;-57
2022/06/09 10:17:49;;;;;;;5.72;2.78;;;;;;;;;;4994481;28;20280;-57
2022/06/09 10:20:15;;;;;;;5.70;2.50;;;;;;;;;;4984814;28;20812;-58
2022/06/09 10:22:42;;;;;;;4.75;2.20;;;;;;;;;;4982411;28;20193;-58
2022/06/09 10:25:19;;;;;;;6.35;2.83;;;;;;;;;;4989447;28;20548;-58
2022/06/09 10:27:46;;;;;;;4.88;3.00;;;;;;;;;;4985801;28;20209;-58
2022/06/09 10:30:13;;;;;;;7.07;3.10;;;;;;;;;;4979854;28;20189;-58
2022/06/09 10:32:57;;;;;;;6.38;2.90;;;;;;;;;;4980918;28;20652;-57
2022/06/09 10:35:42;;;;;;;8.02;2.90;;;;;;;;;;4980218;28;20277;-57
2022/06/09 10:38:11;;;;;;;4.63;2.50;;;;;;;;;;4990862;28;20185;-58
2022/06/09 10:40:41;;;;;;;3.95;2.42;;;;;;;;;;4988977;28;20249;-58
2022/06/09 10:43:19;;;;;;;5.53;2.72;;;;;;;;;;4980339;28;20658;-58
2022/06/09 10:46:04;;;;;;;6.10;2.83;;;;;;;;;;4980981;28;20195;-58
2022/06/09 10:57:48;;;;;;;8.38;3.42;;;;;;;;;;4972186;28;20185;-58
2022/06/09 11:00:15;;;;;;;5.80;2.70;;;;;;;;;;4962997;28;20236;-58
2022/06/09 11:02:44;;;;;;;7.30;3.28;;;;;;;;;;4983359;28;20257;-57
2022/06/09 11:05:11;;;;;;;5.40;2.60;;;;;;;;;;4978548;28;20344;-58
2022/06/09 11:07:37;;;;;;;4.75;2.80;;;;;;;;;;4991387;28;20178;-58
2022/06/09 11:10:03;;;;;;;3.53;2.30;;;;;;;;;;4984464;28;20204;-58
2022/06/09 11:12:47;;;;;;;5.93;2.80;;;;;;;;;;4984275;28;20217;-57
2022/06/09 11:15:16;;;;;;;4.63;2.47;;;;;;;;;;4984536;28;20742;-57
2022/06/09 11:17:47;;;;;;;5.68;2.92;;;;;;;;;;4981798;28;20920;-57
2022/06/09 11:20:13;;;;;;;7.22;2.72;;;;;;;;;;4979661;28;20231;-57
2022/06/09 11:22:41;;;;;;;7.53;2.60;;;;;;;;;;4987618;28;20844;-57
2022/06/09 11:25:20;;;;;;;10.52;2.83;;;;;;;;;;4976297;28;20663;-56
2022/06/09 11:27:49;;;;;;;5.00;2.92;;;;;;;;;;4993089;28;20619;-56
2022/06/09 11:30:24;;;;;;;7.30;3.20;;;;;;;;;;4982804;28;20214;-56
2022/06/09 11:32:57;;;;;;;7.75;2.92;;;;;;;;;;4983821;28;20649;-58
2022/06/09 11:35:29;;;;;;;6.25;2.70;;;;;;;;;;4981513;28;20191;-55
2022/06/09 11:38:04;;;;;;;7.88;3.33;;;;;;;;;;4983798;28;25805;-56
2022/06/09 11:40:33;;;;;;;5.55;2.78;;;;;;;;;;4990241;28;20212;-56
2022/06/09 11:43:05;;;;;;;8.00;2.72;;;;;;;;;;4988494;28;20202;-56
2022/06/09 11:45:43;;;;;;;7.25;3.40;;;;;;;;;;4980988;28;21175;-55
2022/06/09 11:48:32;;;;;;;8.33;3.47;;;;;;;;;;4976763;28;20189;-55
2022/06/09 11:50:58;;;;;;;8.83;3.50;;;;;;;;;;4981048;28;20264;-55
2022/06/09 11:53:25;;;;;;;6.10;3.97;;;;;;;;;;4984229;28;20186;-59
2022/06/09 11:55:58;;;;;;;11.20;4.37;;;;;;;;;;4987996;28;20191;-59
2022/06/09 11:58:36;;;;;;;7.03;3.50;;;;;;;;;;4986748;28;20181;-60
2022/06/09 12:01:21;;;;;;;20.87;3.93;;;;;;;;;;4991059;28;20389;-59
2022/06/09 12:04:03;;;;;;;8.40;3.58;;;;;;;;;;4983986;28;20186;-60
2022/06/09 12:06:35;;;;;;;5.68;3.75;;;;;;;;;;4988074;28;20244;-59
2022/06/09 12:09:05;;;;;;;8.60;4.13;;;;;;;;;;4989014;28;20260;-59
2022/06/09 12:11:51;;;;;;;9.30;3.38;;;;;;;;;;4987316;28;20212;-59
2022/06/09 12:14:33;;;;;;;7.57;4.20;;;;;;;;;;4985077;28;20187;-59
2022/06/09 12:17:05;;;;;;;6.43;3.13;;;;;;;;;;4979501;28;20218;-59
2022/06/09 12:19:35;;;;;;;14.88;3.55;;;;;;;;;;4984187;28;20716;-58
2022/06/09 12:22:20;;;;;;;7.40;3.65;;;;;;;;;;4986375;28;21111;-58
2022/06/09 12:25:01;;;;;;;7.22;3.30;;;;;;;;;;4987564;28;20812;-57
2022/06/09 12:27:48;;;;;;;5.13;3.38;;;;;;;;;;4976216;28;20213;-58
2022/06/09 12:30:24;;;;;;;7.90;3.65;;;;;;;;;;4980199;28;20174;-58
2022/06/09 12:32:50;;;;;;;8.32;3.38;;;;;;;;;;4979295;28;20194;-58
2022/06/09 12:35:31;;;;;;;6.57;3.50;;;;;;;;;;4984079;28;20254;-58
2022/06/09 12:37:59;;;;;;;4.30;3.30;;;;;;;;;;4986609;28;20237;-58
2022/06/09 12:40:26;;;;;;;4.85;3.40;;;;;;;;;;4990248;28;20268;-59
2022/06/09 12:42:54;;;;;;;5.55;3.00;;;;;;;;;;4986942;28;20723;-58
2022/06/09 12:45:27;;;;;;;5.38;2.92;;;;;;;;;;4979140;28;20213;-56
2022/06/09 12:47:53;;;;;;;3.40;2.70;;;;;;;;;;4980347;28;20285;-56
2022/06/09 12:50:21;;;;;;;3.90;2.63;;;;;;;;;;4988260;28;20928;-58
2022/06/09 12:52:47;;;;;;;2.75;2.55;;;;;;;;;;4979326;28;20186;-58
2022/06/09 12:55:22;;;;;;;2.63;2.35;;;;;;;;;;4982332;28;20186;-59
2022/06/09 12:57:49;;;;;;;3.03;2.65;;;;;;;;;;4981424;28;20277;-59
2022/06/09 13:00:16;;;;;;;5.88;2.60;;;;;;;;;;4979575;28;20209;-54
2022/06/09 13:02:42;;;;;;;2.88;2.67;;;;;;;;;;4982190;28;20601;-57
2022/06/09 13:05:17;;;;;;;3.00;2.67;;;;;;;;;;4983826;28;20226;-58
2022/06/09 13:07:54;;;;;;;2.92;2.50;;;;;;;;;;4980628;28;20814;-58
2022/06/09 13:10:30;;;;;;;5.68;2.42;;;;;;;;;;4989707;28;20217;-58
2022/06/09 13:13:35;;;;;;;2.83;2.50;;;;;;;;;;4986761;28;20189;-57
2022/06/09 13:16:02;;;;;;;2.20;2.10;;;;;;;;;;4922568;28;20211;-58
2022/06/09 13:18:28;;;;;;;3.33;3.03;;;;;;;;;;4912419;28;20193;-57
2022/06/09 13:20:56;;;;;;;2.30;2.20;;;;;;;;;;4951818;28;20376;-56
2022/06/09 13:23:22;;;;;;;3.35;2.55;;;;;;;;;;4976465;28;20591;-57
2022/06/09 13:25:48;;;;;;;2.95;2.25;;;;;;;;;;4978476;28;20204;-58
2022/06/09 13:28:24;;;;;;;2.10;2.00;;;;;;;;;;4971952;28;20213;-58
2022/06/09 13:30:51;;;;;;;3.05;2.20;;;;;;;;;;4983458;28;20318;-58
2022/06/09 13:33:24;;;;;;;4.85;2.45;;;;;;;;;;4983251;28;20201;-57
2022/06/09 13:35:54;;;;;;;2.33;2.17;;;;;;;;;;4983239;28;20208;-58
2022/06/09 13:38:24;;;;;;;2.58;2.38;;;;;;;;;;4988187;28;20182;-58
2022/06/09 13:40:52;;;;;;;6.57;2.42;;;;;;;;;;4981044;28;20213;-56
2022/06/09 13:43:38;;;;;;;3.20;2.67;;;;;;;;;;4984543;28;20277;-55
2022/06/09 13:46:07;;;;;;;2.63;2.42;;;;;;;;;;4985812;28;20186;-56
2022/06/09 13:48:41;;;;;;;3.03;2.30;;;;;;;;;;4982462;28;20190;-58
2022/06/09 13:51:09;;;;;;;2.72;2.53;;;;;;;;;;4981518;28;20178;-58
2022/06/09 13:53:39;;;;;;;3.40;2.28;;;;;;;;;;4982141;28;20608;-57
2022/06/09 13:56:08;;;;;;;2.47;2.28;;;;;;;;;;4981123;28;20186;-58
2022/06/09 13:58:34;;;;;;;3.17;2.35;;;;;;;;;;4980187;28;20233;-58
2022/06/09 14:01:00;;;;;;;2.58;2.38;;;;;;;;;;4983297;28;20214;-58
2022/06/09 14:03:30;;;;;;;2.38;2.13;;;;;;;;;;4976057;28;20648;-57
2022/06/09 14:05:57;;;;;;;6.28;2.47;;;;;;;;;;4986001;28;20229;-58
2022/06/09 14:08:24;;;;;;;4.65;2.60;;;;;;;;;;4986072;28;20186;-57
2022/06/09 14:10:50;;;;;;;2.85;2.30;;;;;;;;;;4989088;28;20248;-57
2022/06/09 14:13:16;;;;;;;6.25;2.65;;;;;;;;;;4985520;28;20938;-58
2022/06/09 14:15:42;;;;;;;2.50;2.30;;;;;;;;;;4972632;28;20203;-58
2022/06/09 14:18:09;;;;;;;2.60;2.40;;;;;;;;;;4966600;28;20201;-58
2022/06/09 14:20:36;;;;;;;4.07;2.30;;;;;;;;;;4961813;28;20209;-59
2022/06/09 14:23:02;;;;;;;2.50;2.30;;;;;;;;;;4976814;28;20179;-59
2022/06/09 14:25:29;;;;;;;3.70;2.47;;;;;;;;;;4983243;28;20674;-59
2022/06/09 14:27:56;;;;;;;3.42;2.40;;;;;;;;;;4984468;28;20209;-58
2022/06/09 14:30:22;;;;;;;2.67;2.47;;;;;;;;;;4988311;28;20566;-58
2022/06/09 14:32:48;;;;;;;4.22;2.60;;;;;;;;;;4984407;28;20205;-59
2022/06/09 14:35:16;;;;;;;3.15;2.67;;;;;;;;;;4986807;28;20202;-57
2022/06/09 14:37:43;;;;;;;3.60;2.87;;;;;;;;;;4983156;28;20198;-59
2022/06/09 14:40:25;;;;;;;4.32;2.67;;;;;;;;;;4993420;28;20210;-58
2022/06/09 14:42:51;;;;;;;3.70;2.60;;;;;;;;;;4988046;28;20204;-60
2022/06/09 14:45:17;;;;;;;4.65;2.58;;;;;;;;;;4985456;28;20698;-57
2022/06/09 14:47:43;;;;;;;2.97;2.70;;;;;;;;;;4989109;28;20186;-59
2022/06/09 14:50:11;;;;;;;3.22;2.92;;;;;;;;;;4988569;28;20299;-58
2022/06/09 14:52:39;;;;;;;3.00;2.80;;;;;;;;;;4986348;28;20725;-59
2022/06/09 14:55:05;;;;;;;3.38;3.00;;;;;;;;;;4983915;28;20178;-57
2022/06/09 14:57:31;;;;;;;2.60;2.40;;;;;;;;;;4986954;28;20221;-59
2022/06/09 14:59:57;;;;;;;4.70;2.95;;;;;;;;;;4979773;28;20205;-58
2022/06/09 15:02:23;;;;;;;2.67;2.47;;;;;;;;;;4989894;28;20190;-58
2022/06/09 15:04:49;;;;;;;3.10;2.85;;;;;;;;;;4984842;28;20545;-59
2022/06/09 15:07:18;;;;;;;3.65;2.60;;;;;;;;;;4986512;28;20647;-59
2022/06/09 15:09:45;;;;;;;2.55;2.35;;;;;;;;;;4961389;28;20189;-58